Date,TemperatureHighF,TemperatureAvgF,TemperatureLowF,DewpointHighF,DewpointAvgF,DewpointLowF,HumidityHigh,HumidityAvg,HumidityLow,PressureMaxIn,PressureMinIn,WindSpeedMaxMPH,WindSpeedAvgMPH,GustSpeedMaxMPH,PrecipitationSumIn
2013-5-1,72.0,63.5,58.0,59.0,55.1,53.0,96,76,52,0.00,40.00,4,3,12,0.00
2013-5-2,65.0,60.3,58.0,58.0,55.4,53.0,89,84,74,0.00,40.00,4,3,13,0.00
2013-5-3,61.0,57.9,56.0,57.0,55.0,51.0,96,90,69,0.00,40.00,6,4,15,0.09
2013-5-4,57.0,52.1,48.0,54.0,50.2,46.0,99,93,72,0.00,40.00,4,4,16,2.09
2013-5-5,62.0,54.6,50.0,56.0,52.9,49.0,99,95,82,0.00,40.00,4,2,14,2.77
2013-5-6,55.0,49.9,44.0,52.0,48.5,44.0,99,95,78,0.00,40.00,3,2,6,0.56
2013-5-7,69.0,56.7,49.0,55.0,51.1,49.0,100,84,56,0.00,40.00,3,2,12,0.26
2013-5-8,76.0,63.0,51.0,58.0,54.2,50.0,99,76,45,0.00,40.00,4,2,15,0.02
2013-5-9,83.0,67.1,51.0,61.0,55.6,50.0,99,71,35,0.00,40.00,4,2,13,0.00
2013-5-10,79.0,67.1,54.0,62.0,58.4,53.0,99,76,55,0.00,40.00,3,1,10,0.00
2013-5-11,77.0,65.1,58.0,64.0,58.9,-99.9,98,84,57,0.00,40.00,4,2,11,0.08
2013-5-12,70.0,60.1,50.0,59.0,44.7,31.0,98,63,28,0.00,40.00,4,3,17,0.08
2013-5-13,71.0,55.0,38.0,41.0,35.5,29.0,92,52,25,0.00,40.00,4,3,12,0.01
2013-5-14,79.0,59.5,39.0,54.0,45.3,37.0,93,64,29,0.00,40.00,4,2,11,0.00
2013-5-15,86.0,70.5,57.0,59.0,54.4,52.0,87,61,32,0.00,40.00,4,2,12,0.00
2013-5-16,84.0,61.2,58.0,62.0,35.0,-99.9,90,73,47,0.00,40.00,3,2,7,0.00
2013-5-17,84.0,66.7,55.0,63.0,52.4,-99.9,98,75,43,0.00,40.00,2,1,5,0.00
2013-5-18,74.0,66.8,63.0,68.0,65.0,62.0,100,94,73,0.00,40.00,2,1,6,0.45
2013-5-19,67.0,65.0,63.0,67.0,64.9,63.0,100,100,97,0.00,40.00,3,2,9,5.35
2013-5-20,86.0,72.5,60.0,70.0,65.5,60.0,100,81,55,0.00,40.00,3,2,7,0.02
2013-5-21,89.0,76.1,65.0,71.0,68.2,63.0,100,79,48,0.00,40.00,3,2,7,0.00
2013-5-22,87.0,72.4,63.0,72.0,65.6,62.0,100,82,52,0.00,40.00,3,2,8,0.00
2013-5-23,83.0,72.8,65.0,67.0,61.5,52.0,99,71,45,0.00,40.00,4,2,16,0.00
2013-5-24,76.0,65.1,55.0,56.0,49.6,41.0,95,61,34,0.00,40.00,5,3,13,0.00
2013-5-25,79.0,62.9,44.0,50.0,44.2,40.0,93,55,27,0.00,40.00,3,2,13,0.00
2013-5-26,83.0,66.2,48.0,53.0,48.0,45.0,94,58,29,0.00,40.00,3,2,8,0.00
2013-5-27,87.0,70.3,55.0,61.0,56.2,51.0,86,64,37,0.00,40.00,3,2,7,0.00
2013-5-28,87.0,74.0,63.0,65.0,60.9,58.0,90,66,39,0.00,40.00,3,2,9,0.00
2013-5-29,85.0,70.8,59.0,65.0,62.0,58.0,98,76,50,0.00,40.00,3,2,10,0.00
2013-5-30,83.0,71.0,61.0,67.0,64.0,60.0,97,80,53,0.00,40.00,3,2,7,0.00
2013-5-31,87.0,73.6,64.0,68.0,64.9,63.0,96,76,51,0.00,40.00,3,2,7,0.00